sensor_id;sensor_type;location;lat;lon;timestamp;P1;durP1;ratioP1;P2;durP2;ratioP2
20597;SDS011;10457;48.770;11.446;2023-01-01T00:00:03;860.40;;;607.40;;
20597;SDS011;10457;48.770;11.446;2023-01-01T00:05:32;920.00;;;633.73;;
20597;SDS011;10457;48.770;11.446;2023-01-01T00:10:55;978.83;;;656.53;;
20597;SDS011;10457;48.770;11.446;2023-01-01T00:16:21;1026.63;;;690.97;;
20597;SDS011;10457;48.770;11.446;2023-01-01T00:21:42;1043.83;;;696.17;;
20597;SDS011;10457;48.770;11.446;2023-01-01T00:27:06;1047.13;;;692.90;;
20597;SDS011;10457;48.770;11.446;2023-01-01T00:32:27;1106.03;;;722.40;;
20597;SDS011;10457;48.770;11.446;2023-01-01T00:37:48;1127.10;;;732.37;;
20597;SDS011;10457;48.770;11.446;2023-01-01T00:43:11;1135.27;;;738.20;;
20597;SDS011;10457;48.770;11.446;2023-01-01T00:48:33;1149.30;;;734.63;;
20597;SDS011;10457;48.770;11.446;2023-01-01T00:53:54;1153.37;;;747.37;;
20597;SDS011;10457;48.770;11.446;2023-01-01T00:59:17;1099.03;;;717.37;;
20597;SDS011;10457;48.770;11.446;2023-01-01T01:04:39;1131.53;;;723.73;;
20597;SDS011;10457;48.770;11.446;2023-01-01T01:10:00;1121.60;;;726.00;;
20597;SDS011;10457;48.770;11.446;2023-01-01T01:15:23;1104.77;;;718.03;;
20597;SDS011;10457;48.770;11.446;2023-01-01T01:20:48;1107.73;;;723.93;;
20597;SDS011;10457;48.770;11.446;2023-01-01T01:26:11;1116.43;;;720.50;;
20597;SDS011;10457;48.770;11.446;2023-01-01T01:31:36;1100.27;;;714.50;;
20597;SDS011;10457;48.770;11.446;2023-01-01T01:36:57;1098.30;;;708.70;;
20597;SDS011;10457;48.770;11.446;2023-01-01T01:42:19;1116.87;;;717.50;;
20597;SDS011;10457;48.770;11.446;2023-01-01T01:47:44;1103.20;;;716.70;;
20597;SDS011;10457;48.770;11.446;2023-01-01T01:53:09;984.17;;;655.17;;
20597;SDS011;10457;48.770;11.446;2023-01-01T01:58:37;998.47;;;657.40;;
20597;SDS011;10457;48.770;11.446;2023-01-01T02:04:00;880.17;;;599.20;;
20597;SDS011;10457;48.770;11.446;2023-01-01T02:09:23;914.50;;;609.13;;
20597;SDS011;10457;48.770;11.446;2023-01-01T02:14:45;948.73;;;624.60;;
20597;SDS011;10457;48.770;11.446;2023-01-01T02:20:12;887.57;;;605.97;;
20597;SDS011;10457;48.770;11.446;2023-01-01T02:25:51;894.87;;;593.47;;
20597;SDS011;10457;48.770;11.446;2023-01-01T02:31:41;858.17;;;577.00;;
20597;SDS011;10457;48.770;11.446;2023-01-01T02:37:09;828.10;;;565.20;;
20597;SDS011;10457;48.770;11.446;2023-01-01T02:42:33;847.37;;;572.53;;
20597;SDS011;10457;48.770;11.446;2023-01-01T02:47:56;854.23;;;569.10;;
20597;SDS011;10457;48.770;11.446;2023-01-01T02:53:18;824.70;;;562.60;;
20597;SDS011;10457;48.770;11.446;2023-01-01T02:58:50;786.80;;;534.90;;
20597;SDS011;10457;48.770;11.446;2023-01-01T03:04:41;738.67;;;507.63;;
20597;SDS011;10457;48.770;11.446;2023-01-01T03:10:13;758.83;;;515.10;;
20597;SDS011;10457;48.770;11.446;2023-01-01T03:15:39;745.73;;;505.50;;
20597;SDS011;10457;48.770;11.446;2023-01-01T03:21:07;734.73;;;500.73;;
20597;SDS011;10457;48.770;11.446;2023-01-01T03:26:30;742.20;;;500.47;;
20597;SDS011;10457;48.770;11.446;2023-01-01T03:31:55;740.43;;;505.27;;
20597;SDS011;10457;48.770;11.446;2023-01-01T03:37:21;742.83;;;500.70;;
20597;SDS011;10457;48.770;11.446;2023-01-01T03:42:47;757.13;;;512.17;;
20597;SDS011;10457;48.770;11.446;2023-01-01T03:48:12;775.43;;;527.10;;
20597;SDS011;10457;48.770;11.446;2023-01-01T03:53:37;770.93;;;524.67;;
20597;SDS011;10457;48.770;11.446;2023-01-01T03:59:05;758.07;;;523.17;;
20597;SDS011;10457;48.770;11.446;2023-01-01T04:04:33;752.63;;;513.87;;
20597;SDS011;10457;48.770;11.446;2023-01-01T04:09:56;762.53;;;513.90;;
20597;SDS011;10457;48.770;11.446;2023-01-01T04:15:22;742.93;;;504.90;;
20597;SDS011;10457;48.770;11.446;2023-01-01T04:20:45;725.97;;;500.67;;
20597;SDS011;10457;48.770;11.446;2023-01-01T04:26:11;725.30;;;492.73;;
20597;SDS011;10457;48.770;11.446;2023-01-01T04:31:33;716.60;;;483.33;;
20597;SDS011;10457;48.770;11.446;2023-01-01T04:36:55;654.83;;;451.00;;
20597;SDS011;10457;48.770;11.446;2023-01-01T04:42:18;605.37;;;415.60;;
20597;SDS011;10457;48.770;11.446;2023-01-01T04:47:40;599.90;;;404.47;;
20597;SDS011;10457;48.770;11.446;2023-01-01T04:53:01;595.50;;;400.07;;
20597;SDS011;10457;48.770;11.446;2023-01-01T04:58:24;569.73;;;383.20;;
20597;SDS011;10457;48.770;11.446;2023-01-01T05:03:45;500.33;;;325.07;;
20597;SDS011;10457;48.770;11.446;2023-01-01T05:09:08;507.27;;;321.27;;
20597;SDS011;10457;48.770;11.446;2023-01-01T05:14:32;495.67;;;314.13;;
20597;SDS011;10457;48.770;11.446;2023-01-01T05:19:53;473.17;;;299.00;;
20597;SDS011;10457;48.770;11.446;2023-01-01T05:25:14;462.43;;;276.97;;
20597;SDS011;10457;48.770;11.446;2023-01-01T05:30:39;447.53;;;270.67;;
20597;SDS011;10457;48.770;11.446;2023-01-01T05:36:00;433.33;;;257.20;;
20597;SDS011;10457;48.770;11.446;2023-01-01T05:41:22;427.70;;;245.80;;
20597;SDS011;10457;48.770;11.446;2023-01-01T05:46:45;414.70;;;245.63;;
20597;SDS011;10457;48.770;11.446;2023-01-01T05:52:06;386.83;;;230.27;;
20597;SDS011;10457;48.770;11.446;2023-01-01T05:57:28;375.30;;;224.77;;
20597;SDS011;10457;48.770;11.446;2023-01-01T06:02:51;385.70;;;219.47;;
20597;SDS011;10457;48.770;11.446;2023-01-01T06:08:13;345.97;;;201.87;;
20597;SDS011;10457;48.770;11.446;2023-01-01T06:13:35;346.63;;;205.50;;
20597;SDS011;10457;48.770;11.446;2023-01-01T06:18:58;402.13;;;232.60;;
20597;SDS011;10457;48.770;11.446;2023-01-01T06:24:19;507.00;;;311.27;;
20597;SDS011;10457;48.770;11.446;2023-01-01T06:29:41;495.57;;;313.40;;
20597;SDS011;10457;48.770;11.446;2023-01-01T06:35:04;518.17;;;331.67;;
20597;SDS011;10457;48.770;11.446;2023-01-01T06:40:26;522.80;;;333.80;;
20597;SDS011;10457;48.770;11.446;2023-01-01T06:45:57;527.97;;;339.53;;
20597;SDS011;10457;48.770;11.446;2023-01-01T06:51:22;514.57;;;332.37;;
20597;SDS011;10457;48.770;11.446;2023-01-01T06:56:45;507.40;;;320.20;;
20597;SDS011;10457;48.770;11.446;2023-01-01T07:02:08;491.43;;;311.63;;
20597;SDS011;10457;48.770;11.446;2023-01-01T07:07:32;469.20;;;291.43;;
20597;SDS011;10457;48.770;11.446;2023-01-01T07:12:53;456.23;;;281.40;;
20597;SDS011;10457;48.770;11.446;2023-01-01T07:18:15;473.83;;;293.97;;
20597;SDS011;10457;48.770;11.446;2023-01-01T07:23:38;455.00;;;285.50;;
20597;SDS011;10457;48.770;11.446;2023-01-01T07:28:59;488.13;;;301.90;;
20597;SDS011;10457;48.770;11.446;2023-01-01T07:34:21;476.83;;;297.77;;
20597;SDS011;10457;48.770;11.446;2023-01-01T07:39:44;468.27;;;283.83;;
20597;SDS011;10457;48.770;11.446;2023-01-01T07:45:06;450.57;;;273.27;;
20597;SDS011;10457;48.770;11.446;2023-01-01T07:50:31;460.67;;;281.43;;
20597;SDS011;10457;48.770;11.446;2023-01-01T07:55:55;456.43;;;280.13;;
20597;SDS011;10457;48.770;11.446;2023-01-01T08:01:17;435.27;;;268.87;;
20597;SDS011;10457;48.770;11.446;2023-01-01T08:06:39;421.20;;;257.37;;
20597;SDS011;10457;48.770;11.446;2023-01-01T08:12:02;408.03;;;248.53;;
20597;SDS011;10457;48.770;11.446;2023-01-01T08:17:24;363.90;;;213.17;;
20597;SDS011;10457;48.770;11.446;2023-01-01T08:22:45;269.80;;;162.07;;
20597;SDS011;10457;48.770;11.446;2023-01-01T08:28:09;252.17;;;148.97;;
20597;SDS011;10457;48.770;11.446;2023-01-01T08:33:30;263.93;;;150.10;;
20597;SDS011;10457;48.770;11.446;2023-01-01T08:38:51;248.97;;;145.97;;
20597;SDS011;10457;48.770;11.446;2023-01-01T08:44:15;242.70;;;146.37;;
20597;SDS011;10457;48.770;11.446;2023-01-01T08:49:37;227.30;;;137.43;;
20597;SDS011;10457;48.770;11.446;2023-01-01T08:54:58;312.93;;;181.63;;
20597;SDS011;10457;48.770;11.446;2023-01-01T09:00:21;272.27;;;166.17;;
20597;SDS011;10457;48.770;11.446;2023-01-01T09:05:43;238.20;;;143.33;;
20597;SDS011;10457;48.770;11.446;2023-01-01T09:11:05;212.67;;;130.63;;
20597;SDS011;10457;48.770;11.446;2023-01-01T09:16:28;188.17;;;116.80;;
20597;SDS011;10457;48.770;11.446;2023-01-01T09:21:50;183.73;;;109.87;;
20597;SDS011;10457;48.770;11.446;2023-01-01T09:27:12;162.17;;;98.53;;
20597;SDS011;10457;48.770;11.446;2023-01-01T09:32:34;156.83;;;94.43;;
20597;SDS011;10457;48.770;11.446;2023-01-01T09:37:56;139.50;;;87.37;;
20597;SDS011;10457;48.770;11.446;2023-01-01T09:43:20;134.23;;;83.53;;
20597;SDS011;10457;48.770;11.446;2023-01-01T09:48:57;128.83;;;85.40;;
20597;SDS011;10457;48.770;11.446;2023-01-01T09:54:24;112.83;;;76.77;;
20597;SDS011;10457;48.770;11.446;2023-01-01T09:59:48;105.78;;;72.15;;
20597;SDS011;10457;48.770;11.446;2023-01-01T10:05:19;94.05;;;67.03;;
20597;SDS011;10457;48.770;11.446;2023-01-01T10:10:53;73.35;;;56.38;;
20597;SDS011;10457;48.770;11.446;2023-01-01T10:16:24;72.00;;;53.38;;
20597;SDS011;10457;48.770;11.446;2023-01-01T10:21:55;65.53;;;51.13;;
20597;SDS011;10457;48.770;11.446;2023-01-01T10:27:25;58.03;;;47.55;;
20597;SDS011;10457;48.770;11.446;2023-01-01T10:32:54;59.70;;;48.13;;
20597;SDS011;10457;48.770;11.446;2023-01-01T10:38:21;59.92;;;48.33;;
20597;SDS011;10457;48.770;11.446;2023-01-01T10:43:43;60.65;;;47.08;;
20597;SDS011;10457;48.770;11.446;2023-01-01T10:49:07;50.80;;;39.75;;
20597;SDS011;10457;48.770;11.446;2023-01-01T10:54:35;48.85;;;41.05;;
20597;SDS011;10457;48.770;11.446;2023-01-01T11:05:58;40.92;;;36.53;;
20597;SDS011;10457;48.770;11.446;2023-01-01T11:11:28;33.28;;;27.75;;
20597;SDS011;10457;48.770;11.446;2023-01-01T11:16:51;46.22;;;34.80;;
20597;SDS011;10457;48.770;11.446;2023-01-01T11:22:16;26.05;;;23.10;;
20597;SDS011;10457;48.770;11.446;2023-01-01T11:28:12;22.80;;;20.45;;
20597;SDS011;10457;48.770;11.446;2023-01-01T11:33:42;24.05;;;19.58;;
20597;SDS011;10457;48.770;11.446;2023-01-01T11:39:12;21.77;;;19.52;;
20597;SDS011;10457;48.770;11.446;2023-01-01T11:44:43;20.73;;;18.67;;
20597;SDS011;10457;48.770;11.446;2023-01-01T11:50:13;22.20;;;19.60;;
20597;SDS011;10457;48.770;11.446;2023-01-01T11:55:45;25.35;;;20.00;;
20597;SDS011;10457;48.770;11.446;2023-01-01T12:01:15;23.10;;;19.10;;
20597;SDS011;10457;48.770;11.446;2023-01-01T12:06:45;19.30;;;15.45;;
20597;SDS011;10457;48.770;11.446;2023-01-01T12:12:14;25.17;;;22.55;;
20597;SDS011;10457;48.770;11.446;2023-01-01T12:17:46;28.90;;;23.13;;
20597;SDS011;10457;48.770;11.446;2023-01-01T12:23:12;22.33;;;20.02;;
20597;SDS011;10457;48.770;11.446;2023-01-01T12:28:38;21.13;;;18.85;;
20597;SDS011;10457;48.770;11.446;2023-01-01T12:34:08;19.00;;;16.98;;
20597;SDS011;10457;48.770;11.446;2023-01-01T12:52:08;19.67;;;17.67;;
20597;SDS011;10457;48.770;11.446;2023-01-01T12:57:42;18.73;;;16.17;;
20597;SDS011;10457;48.770;11.446;2023-01-01T13:03:10;19.73;;;16.42;;
20597;SDS011;10457;48.770;11.446;2023-01-01T13:08:39;17.52;;;15.60;;
20597;SDS011;10457;48.770;11.446;2023-01-01T13:14:02;19.77;;;16.13;;
20597;SDS011;10457;48.770;11.446;2023-01-01T13:19:25;20.30;;;16.65;;
20597;SDS011;10457;48.770;11.446;2023-01-01T13:25:03;19.80;;;15.85;;
20597;SDS011;10457;48.770;11.446;2023-01-01T13:30:48;18.42;;;14.65;;
20597;SDS011;10457;48.770;11.446;2023-01-01T13:36:29;16.85;;;12.68;;
20597;SDS011;10457;48.770;11.446;2023-01-01T13:41:52;16.05;;;11.07;;
20597;SDS011;10457;48.770;11.446;2023-01-01T13:47:17;16.85;;;11.73;;
20597;SDS011;10457;48.770;11.446;2023-01-01T13:52:58;13.02;;;9.73;;
20597;SDS011;10457;48.770;11.446;2023-01-01T13:58:47;16.50;;;10.93;;
20597;SDS011;10457;48.770;11.446;2023-01-01T14:04:41;18.17;;;11.52;;
20597;SDS011;10457;48.770;11.446;2023-01-01T14:10:12;14.32;;;10.27;;
20597;SDS011;10457;48.770;11.446;2023-01-01T14:15:50;14.23;;;11.45;;
20597;SDS011;10457;48.770;11.446;2023-01-01T14:21:13;15.65;;;11.00;;
20597;SDS011;10457;48.770;11.446;2023-01-01T14:26:39;14.35;;;10.63;;
20597;SDS011;10457;48.770;11.446;2023-01-01T14:32:12;11.52;;;8.48;;
20597;SDS011;10457;48.770;11.446;2023-01-01T14:37:38;13.20;;;9.80;;
20597;SDS011;10457;48.770;11.446;2023-01-01T14:43:00;15.77;;;9.82;;
20597;SDS011;10457;48.770;11.446;2023-01-01T14:48:28;13.70;;;9.00;;
20597;SDS011;10457;48.770;11.446;2023-01-01T14:53:49;11.80;;;9.73;;
20597;SDS011;10457;48.770;11.446;2023-01-01T14:59:13;14.45;;;9.02;;
20597;SDS011;10457;48.770;11.446;2023-01-01T15:04:46;15.23;;;9.82;;
20597;SDS011;10457;48.770;11.446;2023-01-01T15:10:10;14.07;;;9.70;;
20597;SDS011;10457;48.770;11.446;2023-01-01T15:15:33;12.68;;;8.98;;
20597;SDS011;10457;48.770;11.446;2023-01-01T15:21:01;14.73;;;10.00;;
20597;SDS011;10457;48.770;11.446;2023-01-01T15:26:26;13.90;;;9.40;;
20597;SDS011;10457;48.770;11.446;2023-01-01T15:31:52;15.10;;;10.27;;
20597;SDS011;10457;48.770;11.446;2023-01-01T15:37:18;17.25;;;12.80;;
20597;SDS011;10457;48.770;11.446;2023-01-01T15:43:04;17.88;;;11.07;;
20597;SDS011;10457;48.770;11.446;2023-01-01T15:48:35;22.85;;;14.18;;
20597;SDS011;10457;48.770;11.446;2023-01-01T15:54:13;17.33;;;11.57;;
20597;SDS011;10457;48.770;11.446;2023-01-01T15:59:37;20.38;;;12.15;;
20597;SDS011;10457;48.770;11.446;2023-01-01T16:05:02;18.70;;;11.90;;
20597;SDS011;10457;48.770;11.446;2023-01-01T16:10:35;22.23;;;13.82;;
20597;SDS011;10457;48.770;11.446;2023-01-01T16:15:57;31.50;;;18.40;;
20597;SDS011;10457;48.770;11.446;2023-01-01T16:21:20;38.35;;;21.23;;
20597;SDS011;10457;48.770;11.446;2023-01-01T16:26:46;36.30;;;20.17;;
20597;SDS011;10457;48.770;11.446;2023-01-01T16:32:09;32.80;;;20.30;;
20597;SDS011;10457;48.770;11.446;2023-01-01T16:37:36;30.53;;;18.83;;
20597;SDS011;10457;48.770;11.446;2023-01-01T16:42:59;26.73;;;18.00;;
20597;SDS011;10457;48.770;11.446;2023-01-01T16:48:20;33.13;;;21.10;;
20597;SDS011;10457;48.770;11.446;2023-01-01T16:53:41;29.07;;;18.73;;
20597;SDS011;10457;48.770;11.446;2023-01-01T16:59:04;28.50;;;18.43;;
20597;SDS011;10457;48.770;11.446;2023-01-01T17:04:26;30.97;;;19.90;;
20597;SDS011;10457;48.770;11.446;2023-01-01T17:09:47;26.33;;;19.83;;
20597;SDS011;10457;48.770;11.446;2023-01-01T17:15:10;30.83;;;19.60;;
20597;SDS011;10457;48.770;11.446;2023-01-01T17:20:32;30.93;;;19.97;;
20597;SDS011;10457;48.770;11.446;2023-01-01T17:25:54;32.63;;;20.33;;
20597;SDS011;10457;48.770;11.446;2023-01-01T17:31:17;31.70;;;18.93;;
20597;SDS011;10457;48.770;11.446;2023-01-01T17:36:41;33.27;;;20.03;;
20597;SDS011;10457;48.770;11.446;2023-01-01T17:42:03;31.07;;;19.00;;
20597;SDS011;10457;48.770;11.446;2023-01-01T17:47:27;57.80;;;34.57;;
20597;SDS011;10457;48.770;11.446;2023-01-01T17:52:50;46.50;;;27.23;;
20597;SDS011;10457;48.770;11.446;2023-01-01T17:58:12;40.87;;;26.00;;
20597;SDS011;10457;48.770;11.446;2023-01-01T18:03:35;44.03;;;27.30;;
20597;SDS011;10457;48.770;11.446;2023-01-01T18:08:58;49.57;;;27.97;;
20597;SDS011;10457;48.770;11.446;2023-01-01T18:14:22;43.73;;;25.23;;
20597;SDS011;10457;48.770;11.446;2023-01-01T18:19:45;44.77;;;24.37;;
20597;SDS011;10457;48.770;11.446;2023-01-01T18:25:06;47.43;;;27.27;;
20597;SDS011;10457;48.770;11.446;2023-01-01T18:30:29;29.87;;;19.17;;
20597;SDS011;10457;48.770;11.446;2023-01-01T18:35:55;32.43;;;18.73;;
20597;SDS011;10457;48.770;11.446;2023-01-01T18:41:21;34.67;;;20.17;;
20597;SDS011;10457;48.770;11.446;2023-01-01T18:47:12;29.23;;;18.20;;
20597;SDS011;10457;48.770;11.446;2023-01-01T18:52:37;30.77;;;18.40;;
20597;SDS011;10457;48.770;11.446;2023-01-01T18:58:00;29.83;;;18.33;;
20597;SDS011;10457;48.770;11.446;2023-01-01T19:03:34;26.83;;;17.47;;
20597;SDS011;10457;48.770;11.446;2023-01-01T19:09:02;27.63;;;18.83;;
20597;SDS011;10457;48.770;11.446;2023-01-01T19:14:39;24.53;;;16.20;;
20597;SDS011;10457;48.770;11.446;2023-01-01T19:20:05;34.40;;;19.30;;
20597;SDS011;10457;48.770;11.446;2023-01-01T19:25:38;30.57;;;22.00;;
20597;SDS011;10457;48.770;11.446;2023-01-01T19:31:00;31.13;;;19.23;;
20597;SDS011;10457;48.770;11.446;2023-01-01T19:36:24;34.67;;;19.83;;
20597;SDS011;10457;48.770;11.446;2023-01-01T19:41:46;30.33;;;19.40;;
20597;SDS011;10457;48.770;11.446;2023-01-01T19:47:08;30.80;;;18.90;;
20597;SDS011;10457;48.770;11.446;2023-01-01T19:52:29;32.57;;;17.77;;
20597;SDS011;10457;48.770;11.446;2023-01-01T19:57:52;35.30;;;17.57;;
20597;SDS011;10457;48.770;11.446;2023-01-01T20:03:14;29.53;;;17.37;;
20597;SDS011;10457;48.770;11.446;2023-01-01T20:08:36;26.53;;;16.57;;
20597;SDS011;10457;48.770;11.446;2023-01-01T20:13:59;27.87;;;16.70;;
20597;SDS011;10457;48.770;11.446;2023-01-01T20:19:20;30.10;;;17.73;;
20597;SDS011;10457;48.770;11.446;2023-01-01T20:24:42;29.73;;;16.53;;
20597;SDS011;10457;48.770;11.446;2023-01-01T20:30:06;29.43;;;16.87;;
20597;SDS011;10457;48.770;11.446;2023-01-01T20:35:29;36.80;;;19.30;;
20597;SDS011;10457;48.770;11.446;2023-01-01T20:41:07;30.50;;;16.93;;
20597;SDS011;10457;48.770;11.446;2023-01-01T20:46:45;24.47;;;16.07;;
20597;SDS011;10457;48.770;11.446;2023-01-01T20:52:08;29.70;;;17.90;;
20597;SDS011;10457;48.770;11.446;2023-01-01T20:57:29;27.00;;;15.83;;
20597;SDS011;10457;48.770;11.446;2023-01-01T21:02:52;27.93;;;17.07;;
20597;SDS011;10457;48.770;11.446;2023-01-01T21:08:13;26.63;;;15.97;;
20597;SDS011;10457;48.770;11.446;2023-01-01T21:13:35;34.93;;;18.27;;
20597;SDS011;10457;48.770;11.446;2023-01-01T21:18:58;29.70;;;17.43;;
20597;SDS011;10457;48.770;11.446;2023-01-01T21:24:24;35.33;;;18.57;;
20597;SDS011;10457;48.770;11.446;2023-01-01T21:29:48;31.73;;;17.27;;
20597;SDS011;10457;48.770;11.446;2023-01-01T21:35:17;29.73;;;17.00;;
20597;SDS011;10457;48.770;11.446;2023-01-01T21:40:42;25.80;;;16.77;;
20597;SDS011;10457;48.770;11.446;2023-01-01T21:51:57;32.10;;;16.57;;
20597;SDS011;10457;48.770;11.446;2023-01-01T21:57:54;29.27;;;16.27;;
20597;SDS011;10457;48.770;11.446;2023-01-01T22:03:36;26.40;;;16.83;;
20597;SDS011;10457;48.770;11.446;2023-01-01T22:09:00;31.90;;;21.52;;
20597;SDS011;10457;48.770;11.446;2023-01-01T22:14:23;35.13;;;19.13;;
20597;SDS011;10457;48.770;11.446;2023-01-01T22:19:47;30.90;;;17.87;;
20597;SDS011;10457;48.770;11.446;2023-01-01T22:25:16;37.37;;;19.50;;
20597;SDS011;10457;48.770;11.446;2023-01-01T22:30:44;30.87;;;18.83;;
20597;SDS011;10457;48.770;11.446;2023-01-01T22:36:09;48.33;;;24.93;;
20597;SDS011;10457;48.770;11.446;2023-01-01T22:41:35;28.67;;;17.70;;
20597;SDS011;10457;48.770;11.446;2023-01-01T22:46:57;28.47;;;17.13;;
20597;SDS011;10457;48.770;11.446;2023-01-01T22:52:19;36.07;;;21.17;;
20597;SDS011;10457;48.770;11.446;2023-01-01T22:57:42;54.30;;;34.20;;
20597;SDS011;10457;48.770;11.446;2023-01-01T23:03:04;43.67;;;28.53;;
20597;SDS011;10457;48.770;11.446;2023-01-01T23:08:26;32.87;;;21.67;;
20597;SDS011;10457;48.770;11.446;2023-01-01T23:13:50;26.53;;;16.73;;
20597;SDS011;10457;48.770;11.446;2023-01-01T23:19:29;31.93;;;17.87;;
20597;SDS011;10457;48.770;11.446;2023-01-01T23:24:52;26.40;;;15.77;;
20597;SDS011;10457;48.770;11.446;2023-01-01T23:30:16;24.27;;;16.37;;
20597;SDS011;10457;48.770;11.446;2023-01-01T23:35:38;27.60;;;16.17;;
20597;SDS011;10457;48.770;11.446;2023-01-01T23:41:00;28.63;;;15.77;;
20597;SDS011;10457;48.770;11.446;2023-01-01T23:46:23;30.17;;;16.63;;
20597;SDS011;10457;48.770;11.446;2023-01-01T23:51:45;25.20;;;17.00;;
20597;SDS011;10457;48.770;11.446;2023-01-01T23:57:06;28.47;;;16.77;;
